NOZ278 ENGM-ENCN
Flight info
| Callsign | NOZ278 |
|---|---|
| Flight time | 0h 42m |
| Altitude | 24000 |
| Route | VIPPA DCT OSVAL |
| Aircraft | B738/M-SDE2E3FGHIRWXY/LB1 |
Departure
| Time | 2026-05-04 20:07 |
|---|---|
| Airport | Oslo-Gardermoen International Airport (ENGM) |
Arrival
| Time | 2026-05-04 20:49 |
|---|---|
| Airport | Kristiansand Airport (ENCN) |
| Time | Latitude | Longitude | Altitude | Speed | Heading |
|---|---|---|---|---|---|
| 2026-05-04 19:39 | 60.19630 | 11.09947 | 690 ft | 0 kts | 106° |
| 2026-05-04 19:58 | 60.19631 | 11.09943 | 690 ft | 2 kts | 106° |
| 2026-05-04 19:58 | 60.19637 | 11.09893 | 682 ft | 4 kts | 103° |
| 2026-05-04 19:59 | 60.19643 | 11.09840 | 682 ft | 4 kts | 98° |
| 2026-05-04 19:59 | 60.19645 | 11.09786 | 682 ft | 4 kts | 88° |
| 2026-05-04 19:59 | 60.19640 | 11.09737 | 683 ft | 4 kts | 51° |
| 2026-05-04 19:59 | 60.19632 | 11.09721 | 683 ft | 0 kts | 17° |
| 2026-05-04 20:01 | 60.19684 | 11.09752 | 690 ft | 17 kts | 16° |
| 2026-05-04 20:01 | 60.19838 | 11.09841 | 688 ft | 26 kts | 16° |
| 2026-05-04 20:02 | 60.19921 | 11.09888 | 690 ft | 0 kts | 15° |
| 2026-05-04 20:02 | 60.19926 | 11.09890 | 690 ft | 1 kts | 15° |
| 2026-05-04 20:02 | 60.19937 | 11.09896 | 690 ft | 0 kts | 15° |
| 2026-05-04 20:02 | 60.19938 | 11.09897 | 690 ft | 0 kts | 15° |
| 2026-05-04 20:03 | 60.19948 | 11.09902 | 690 ft | 5 kts | 15° |
| 2026-05-04 20:03 | 60.20032 | 11.09969 | 683 ft | 15 kts | 55° |
| 2026-05-04 20:03 | 60.20021 | 11.10196 | 685 ft | 21 kts | 107° |
| 2026-05-04 20:04 | 60.19969 | 11.10568 | 688 ft | 30 kts | 105° |
| 2026-05-04 20:04 | 60.19909 | 11.10975 | 686 ft | 30 kts | 106° |
| 2026-05-04 20:04 | 60.19855 | 11.11366 | 690 ft | 28 kts | 105° |
| 2026-05-04 20:04 | 60.19900 | 11.11555 | 690 ft | 15 kts | 19° |
| 2026-05-04 20:05 | 60.20007 | 11.11614 | 690 ft | 17 kts | 15° |
| 2026-05-04 20:05 | 60.20100 | 11.11718 | 685 ft | 13 kts | 87° |
| 2026-05-04 20:05 | 60.20059 | 11.11948 | 687 ft | 24 kts | 107° |
| 2026-05-04 20:05 | 60.19965 | 11.12165 | 685 ft | 23 kts | 188° |
| 2026-05-04 20:06 | 60.19937 | 11.12151 | 687 ft | 0 kts | 196° |
| 2026-05-04 20:06 | 60.19656 | 11.11984 | 689 ft | 93 kts | 197° |
| 2026-05-04 20:07 | 60.18754 | 11.11436 | 779 ft | 169 kts | 196° |
| 2026-05-04 20:07 | 60.17576 | 11.10922 | 1844 ft | 168 kts | 194° |
| 2026-05-04 20:07 | 60.16405 | 11.10782 | 3076 ft | 173 kts | 181° |
| 2026-05-04 20:07 | 60.15222 | 11.11730 | 4064 ft | 199 kts | 149° |
| 2026-05-04 20:08 | 60.13958 | 11.12868 | 4850 ft | 207 kts | 182° |
| 2026-05-04 20:08 | 60.12517 | 11.12179 | 5158 ft | 226 kts | 212° |
| 2026-05-04 20:08 | 60.11144 | 11.10323 | 5584 ft | 250 kts | 217° |
| 2026-05-04 20:08 | 60.09573 | 11.08720 | 6351 ft | 258 kts | 205° |
| 2026-05-04 20:09 | 60.07827 | 11.07687 | 6692 ft | 265 kts | 197° |
| 2026-05-04 20:09 | 60.06020 | 11.06983 | 6726 ft | 263 kts | 198° |
| 2026-05-04 20:09 | 60.04306 | 11.05808 | 6749 ft | 262 kts | 205° |
| 2026-05-04 20:09 | 60.02589 | 11.04506 | 6747 ft | 265 kts | 205° |
| 2026-05-04 20:10 | 60.00855 | 11.03210 | 6731 ft | 266 kts | 205° |
| 2026-05-04 20:10 | 59.99123 | 11.01929 | 6699 ft | 263 kts | 205° |
| 2026-05-04 20:10 | 59.97413 | 11.00674 | 6716 ft | 261 kts | 205° |
| 2026-05-04 20:10 | 59.95760 | 10.99467 | 6725 ft | 261 kts | 205° |
| 2026-05-04 20:11 | 59.94050 | 10.98221 | 6729 ft | 262 kts | 205° |
| 2026-05-04 20:11 | 59.92337 | 10.96976 | 6715 ft | 262 kts | 205° |
| 2026-05-04 20:11 | 59.90621 | 10.95737 | 6721 ft | 262 kts | 205° |
| 2026-05-04 20:11 | 59.88905 | 10.94498 | 6712 ft | 262 kts | 205° |
| 2026-05-04 20:12 | 59.87768 | 10.93678 | 6715 ft | 263 kts | 205° |
| 2026-05-04 20:12 | 59.85488 | 10.92040 | 6749 ft | 265 kts | 205° |
| 2026-05-04 20:12 | 59.83716 | 10.90786 | 7473 ft | 267 kts | 204° |
| 2026-05-04 20:12 | 59.82003 | 10.89604 | 8819 ft | 262 kts | 207° |
| 2026-05-04 20:13 | 59.80845 | 10.88765 | 9674 ft | 263 kts | 208° |
| 2026-05-04 20:13 | 59.79097 | 10.87481 | 10481 ft | 278 kts | 208° |
| 2026-05-04 20:13 | 59.77220 | 10.86109 | 11211 ft | 293 kts | 208° |
| 2026-05-04 20:13 | 59.75284 | 10.84713 | 12276 ft | 298 kts | 208° |
| 2026-05-04 20:14 | 59.73322 | 10.83309 | 13470 ft | 301 kts | 209° |
| 2026-05-04 20:14 | 59.71334 | 10.81889 | 14425 ft | 307 kts | 209° |
| 2026-05-04 20:14 | 59.69315 | 10.80451 | 15495 ft | 310 kts | 209° |
| 2026-05-04 20:14 | 59.67279 | 10.79003 | 16613 ft | 312 kts | 210° |
| 2026-05-04 20:15 | 59.65238 | 10.77558 | 17902 ft | 309 kts | 210° |
| 2026-05-04 20:15 | 59.63233 | 10.76146 | 19134 ft | 303 kts | 210° |
| 2026-05-04 20:15 | 59.61253 | 10.74744 | 20251 ft | 302 kts | 211° |
| 2026-05-04 20:15 | 59.59276 | 10.73345 | 21305 ft | 302 kts | 211° |
| 2026-05-04 20:16 | 59.57327 | 10.71968 | 22339 ft | 301 kts | 211° |
| 2026-05-04 20:16 | 59.55329 | 10.70564 | 23347 ft | 303 kts | 211° |
| 2026-05-04 20:16 | 59.53363 | 10.69319 | 23671 ft | 303 kts | 207° |
| 2026-05-04 20:16 | 59.51263 | 10.68425 | 23753 ft | 313 kts | 203° |
| 2026-05-04 20:17 | 59.49118 | 10.67680 | 23762 ft | 312 kts | 202° |
| 2026-05-04 20:17 | 59.46952 | 10.66972 | 23769 ft | 311 kts | 202° |
| 2026-05-04 20:17 | 59.44852 | 10.66279 | 23719 ft | 309 kts | 202° |
| 2026-05-04 20:17 | 59.42736 | 10.65565 | 23762 ft | 308 kts | 202° |
| 2026-05-04 20:18 | 59.40597 | 10.64828 | 23770 ft | 308 kts | 202° |
| 2026-05-04 20:18 | 59.38482 | 10.64087 | 23776 ft | 309 kts | 202° |
| 2026-05-04 20:18 | 59.36360 | 10.63339 | 23776 ft | 310 kts | 202° |
| 2026-05-04 20:18 | 59.34234 | 10.62587 | 23778 ft | 311 kts | 202° |
| 2026-05-04 20:19 | 59.32101 | 10.61832 | 23780 ft | 312 kts | 202° |
| 2026-05-04 20:19 | 59.29991 | 10.61085 | 23983 ft | 313 kts | 202° |
| 2026-05-04 20:19 | 59.27847 | 10.60327 | 23982 ft | 313 kts | 202° |
| 2026-05-04 20:19 | 59.25701 | 10.59568 | 23976 ft | 314 kts | 202° |
| 2026-05-04 20:20 | 59.23553 | 10.58811 | 23968 ft | 314 kts | 202° |
| 2026-05-04 20:20 | 59.21405 | 10.58054 | 23958 ft | 314 kts | 202° |
| 2026-05-04 20:20 | 59.19257 | 10.57298 | 23943 ft | 313 kts | 202° |
| 2026-05-04 20:20 | 59.17114 | 10.56544 | 23891 ft | 313 kts | 202° |
| 2026-05-04 20:21 | 59.14973 | 10.55792 | 23905 ft | 312 kts | 201° |
| 2026-05-04 20:21 | 59.12840 | 10.55042 | 23903 ft | 312 kts | 201° |
| 2026-05-04 20:21 | 59.08552 | 10.53539 | 23883 ft | 313 kts | 201° |
| 2026-05-04 20:22 | 59.06413 | 10.52757 | 23862 ft | 310 kts | 206° |
| 2026-05-04 20:22 | 59.04554 | 10.51035 | 23803 ft | 289 kts | 225° |
| 2026-05-04 20:22 | 59.03107 | 10.48403 | 23793 ft | 283 kts | 239° |
| 2026-05-04 20:22 | 59.02038 | 10.45481 | 23793 ft | 282 kts | 242° |
| 2026-05-04 20:23 | 59.00964 | 10.42320 | 23786 ft | 280 kts | 243° |
| 2026-05-04 20:23 | 58.99900 | 10.39165 | 23786 ft | 279 kts | 243° |
| 2026-05-04 20:23 | 58.98834 | 10.36024 | 23787 ft | 279 kts | 243° |
| 2026-05-04 20:23 | 58.97762 | 10.32897 | 23788 ft | 278 kts | 242° |
| 2026-05-04 20:24 | 58.96687 | 10.29781 | 23793 ft | 278 kts | 242° |
| 2026-05-04 20:24 | 58.95609 | 10.26673 | 23800 ft | 278 kts | 242° |
| 2026-05-04 20:24 | 58.94529 | 10.23567 | 23799 ft | 278 kts | 242° |
| 2026-05-04 20:24 | 58.93408 | 10.20502 | 23800 ft | 280 kts | 240° |
| 2026-05-04 20:25 | 58.92239 | 10.17488 | 23798 ft | 280 kts | 239° |
| 2026-05-04 20:25 | 58.91056 | 10.14482 | 23769 ft | 281 kts | 239° |
| 2026-05-04 20:25 | 58.89871 | 10.11476 | 23794 ft | 282 kts | 239° |
| 2026-05-04 20:25 | 58.88682 | 10.08457 | 23799 ft | 283 kts | 239° |
| 2026-05-04 20:26 | 58.87488 | 10.05421 | 23808 ft | 284 kts | 239° |
| 2026-05-04 20:26 | 58.86284 | 10.02358 | 23556 ft | 286 kts | 239° |
| 2026-05-04 20:26 | 58.85083 | 9.99307 | 23160 ft | 286 kts | 239° |
| 2026-05-04 20:26 | 58.83885 | 9.96265 | 22754 ft | 284 kts | 239° |
| 2026-05-04 20:27 | 58.82696 | 9.93248 | 22321 ft | 282 kts | 239° |
| 2026-05-04 20:27 | 58.81511 | 9.90241 | 21850 ft | 281 kts | 239° |
| 2026-05-04 20:27 | 58.80328 | 9.87245 | 21377 ft | 280 kts | 239° |
| 2026-05-04 20:27 | 58.79153 | 9.84271 | 20995 ft | 278 kts | 239° |
| 2026-05-04 20:28 | 58.77987 | 9.81321 | 20591 ft | 276 kts | 239° |
| 2026-05-04 20:28 | 58.76828 | 9.78394 | 20219 ft | 273 kts | 239° |
| 2026-05-04 20:28 | 58.75678 | 9.75494 | 19838 ft | 271 kts | 239° |
| 2026-05-04 20:28 | 58.74536 | 9.72616 | 19465 ft | 270 kts | 239° |
| 2026-05-04 20:29 | 58.73401 | 9.69758 | 19087 ft | 268 kts | 239° |
| 2026-05-04 20:29 | 58.72273 | 9.66920 | 18721 ft | 267 kts | 239° |
| 2026-05-04 20:29 | 58.71147 | 9.64093 | 18348 ft | 265 kts | 239° |
| 2026-05-04 20:29 | 58.70024 | 9.61274 | 17926 ft | 265 kts | 239° |
| 2026-05-04 20:30 | 58.68905 | 9.58469 | 17524 ft | 263 kts | 239° |
| 2026-05-04 20:30 | 58.67796 | 9.55692 | 17150 ft | 261 kts | 239° |
| 2026-05-04 20:30 | 58.66694 | 9.52937 | 16765 ft | 258 kts | 239° |
| 2026-05-04 20:30 | 58.65602 | 9.50212 | 16401 ft | 257 kts | 238° |
| 2026-05-04 20:31 | 58.64516 | 9.47502 | 16046 ft | 256 kts | 238° |
| 2026-05-04 20:31 | 58.63426 | 9.44784 | 15686 ft | 259 kts | 238° |
| 2026-05-04 20:31 | 58.62321 | 9.42028 | 15327 ft | 264 kts | 238° |
| 2026-05-04 20:31 | 58.61191 | 9.39215 | 14951 ft | 269 kts | 238° |
| 2026-05-04 20:32 | 58.60041 | 9.36359 | 14557 ft | 271 kts | 237° |
| 2026-05-04 20:32 | 58.58894 | 9.33518 | 14176 ft | 269 kts | 237° |
| 2026-05-04 20:32 | 58.57753 | 9.30696 | 13795 ft | 267 kts | 237° |
| 2026-05-04 20:32 | 58.56618 | 9.27889 | 13387 ft | 265 kts | 237° |
| 2026-05-04 20:33 | 58.55491 | 9.25106 | 12979 ft | 263 kts | 237° |
| 2026-05-04 20:33 | 58.54372 | 9.22347 | 12591 ft | 261 kts | 237° |
| 2026-05-04 20:33 | 58.53264 | 9.19616 | 12221 ft | 258 kts | 237° |
| 2026-05-04 20:33 | 58.52167 | 9.16911 | 11854 ft | 256 kts | 237° |
| 2026-05-04 20:34 | 58.51079 | 9.14233 | 11494 ft | 254 kts | 237° |
| 2026-05-04 20:34 | 58.49999 | 9.11579 | 11134 ft | 252 kts | 237° |
| 2026-05-04 20:34 | 58.48924 | 9.08945 | 10788 ft | 250 kts | 237° |
| 2026-05-04 20:34 | 58.47858 | 9.06332 | 10436 ft | 248 kts | 237° |
| 2026-05-04 20:35 | 58.46926 | 9.03598 | 10090 ft | 244 kts | 246° |
| 2026-05-04 20:35 | 58.46222 | 9.00726 | 9947 ft | 234 kts | 249° |
| 2026-05-04 20:35 | 58.45574 | 8.97931 | 9725 ft | 229 kts | 249° |
| 2026-05-04 20:35 | 58.45102 | 8.95885 | 9486 ft | 228 kts | 249° |
| 2026-05-04 20:36 | 58.44460 | 8.93129 | 9170 ft | 227 kts | 249° |
| 2026-05-04 20:36 | 58.43818 | 8.90391 | 8847 ft | 225 kts | 249° |
| 2026-05-04 20:36 | 58.43176 | 8.87676 | 8551 ft | 224 kts | 249° |
| 2026-05-04 20:36 | 58.42535 | 8.84981 | 8242 ft | 222 kts | 249° |
| 2026-05-04 20:37 | 58.41896 | 8.82305 | 7935 ft | 221 kts | 249° |
| 2026-05-04 20:37 | 58.41257 | 8.79639 | 7636 ft | 221 kts | 249° |
| 2026-05-04 20:37 | 58.40618 | 8.76984 | 7336 ft | 220 kts | 249° |
| 2026-05-04 20:37 | 58.39980 | 8.74336 | 7046 ft | 220 kts | 249° |
| 2026-05-04 20:38 | 58.39342 | 8.71690 | 6748 ft | 219 kts | 250° |
| 2026-05-04 20:38 | 58.38742 | 8.69202 | 6480 ft | 218 kts | 250° |
| 2026-05-04 20:38 | 58.38114 | 8.66617 | 6283 ft | 212 kts | 250° |
| 2026-05-04 20:38 | 58.37505 | 8.64111 | 6013 ft | 202 kts | 250° |
| 2026-05-04 20:39 | 58.36935 | 8.61774 | 5729 ft | 187 kts | 250° |
| 2026-05-04 20:39 | 58.36408 | 8.59610 | 5499 ft | 173 kts | 251° |
| 2026-05-04 20:39 | 58.35922 | 8.57615 | 5387 ft | 158 kts | 251° |
| 2026-05-04 20:39 | 58.35470 | 8.55757 | 5281 ft | 152 kts | 251° |
| 2026-05-04 20:40 | 58.35025 | 8.53925 | 5226 ft | 151 kts | 251° |
| 2026-05-04 20:40 | 58.34583 | 8.52112 | 5140 ft | 150 kts | 251° |
| 2026-05-04 20:40 | 58.34144 | 8.50319 | 5096 ft | 149 kts | 251° |
| 2026-05-04 20:40 | 58.33708 | 8.48535 | 5036 ft | 148 kts | 251° |
| 2026-05-04 20:41 | 58.33271 | 8.46746 | 4972 ft | 149 kts | 251° |
| 2026-05-04 20:41 | 58.32929 | 8.44975 | 4885 ft | 135 kts | 271° |
| 2026-05-04 20:41 | 58.33060 | 8.43300 | 4834 ft | 128 kts | 291° |
| 2026-05-04 20:41 | 58.33560 | 8.41903 | 4811 ft | 127 kts | 300° |
| 2026-05-04 20:42 | 58.34054 | 8.40516 | 4756 ft | 126 kts | 299° |
| 2026-05-04 20:42 | 58.34550 | 8.39132 | 4636 ft | 129 kts | 300° |
| 2026-05-04 20:42 | 58.35064 | 8.37708 | 4513 ft | 132 kts | 300° |
| 2026-05-04 20:42 | 58.35582 | 8.36295 | 4368 ft | 129 kts | 300° |
| 2026-05-04 20:43 | 58.36085 | 8.34913 | 4197 ft | 125 kts | 301° |
| 2026-05-04 20:43 | 58.36571 | 8.33549 | 4062 ft | 125 kts | 296° |
| 2026-05-04 20:43 | 58.36591 | 8.31974 | 3929 ft | 132 kts | 242° |
| 2026-05-04 20:43 | 58.35953 | 8.30644 | 3825 ft | 136 kts | 244° |
| 2026-05-04 20:44 | 58.35373 | 8.29200 | 3654 ft | 139 kts | 235° |
| 2026-05-04 20:44 | 58.34663 | 8.27942 | 3512 ft | 139 kts | 233° |
| 2026-05-04 20:44 | 58.33942 | 8.26707 | 3355 ft | 140 kts | 230° |
| 2026-05-04 20:44 | 58.33186 | 8.25558 | 3235 ft | 137 kts | 227° |
| 2026-05-04 20:45 | 58.32434 | 8.24512 | 3100 ft | 130 kts | 227° |
| 2026-05-04 20:45 | 58.31708 | 8.23527 | 2920 ft | 128 kts | 226° |
| 2026-05-04 20:45 | 58.30991 | 8.22569 | 2763 ft | 125 kts | 225° |
| 2026-05-04 20:45 | 58.30276 | 8.21634 | 2557 ft | 123 kts | 222° |
| 2026-05-04 20:46 | 58.29566 | 8.20716 | 2420 ft | 125 kts | 227° |
| 2026-05-04 20:46 | 58.28865 | 8.19735 | 2314 ft | 121 kts | 224° |
| 2026-05-04 20:46 | 58.28176 | 8.18828 | 2121 ft | 120 kts | 224° |
| 2026-05-04 20:46 | 58.27502 | 8.17934 | 1941 ft | 115 kts | 225° |
| 2026-05-04 20:47 | 58.26854 | 8.17074 | 1747 ft | 114 kts | 225° |
| 2026-05-04 20:47 | 58.26223 | 8.16186 | 1541 ft | 116 kts | 222° |
| 2026-05-04 20:47 | 58.25551 | 8.15336 | 1333 ft | 116 kts | 219° |
| 2026-05-04 20:47 | 58.24883 | 8.14456 | 1160 ft | 119 kts | 220° |
| 2026-05-04 20:48 | 58.24205 | 8.13559 | 975 ft | 118 kts | 219° |
| 2026-05-04 20:48 | 58.23534 | 8.12652 | 822 ft | 116 kts | 219° |
| 2026-05-04 20:48 | 58.22885 | 8.11852 | 647 ft | 113 kts | 219° |
| 2026-05-04 20:48 | 58.22219 | 8.10928 | 431 ft | 121 kts | 220° |
| 2026-05-04 20:49 | 58.21551 | 8.10045 | 238 ft | 118 kts | 219° |
| 2026-05-04 20:49 | 58.20867 | 8.09128 | 90 ft | 116 kts | 219° |
| 2026-05-04 20:49 | 58.20328 | 8.08405 | 59 ft | 53 kts | 214° |
| 2026-05-04 20:49 | 58.20064 | 8.08067 | 51 ft | 44 kts | 214° |
| 2026-05-04 20:50 | 58.19829 | 8.07763 | 59 ft | 38 kts | 215° |
| 2026-05-04 20:50 | 58.19708 | 8.07542 | 56 ft | 17 kts | 257° |
| 2026-05-04 20:50 | 58.19737 | 8.07462 | 56 ft | 6 kts | 341° |
| 2026-05-04 20:50 | 58.19789 | 8.07436 | 57 ft | 9 kts | 345° |
| 2026-05-04 20:51 | 58.19859 | 8.07398 | 56 ft | 12 kts | 342° |
| 2026-05-04 20:51 | 58.19948 | 8.07352 | 57 ft | 14 kts | 357° |
| 2026-05-04 20:51 | 58.20034 | 8.07412 | 54 ft | 13 kts | 35° |
| 2026-05-04 20:51 | 58.20110 | 8.07507 | 54 ft | 13 kts | 32° |
| 2026-05-04 20:52 | 58.20166 | 8.07538 | 57 ft | 8 kts | 333° |
| 2026-05-04 20:52 | 58.20184 | 8.07486 | 55 ft | 0 kts | 300° |
| 2026-05-04 20:52 | 58.20184 | 8.07483 | 55 ft | 0 kts | 300° |